createdAt,value
2023-01-07T00:01:21.394Z,99.90
2023-01-07T00:03:49.332Z,99.90
2023-01-07T00:06:21.982Z,99.90
2023-01-07T00:08:50.417Z,99.90
2023-01-07T00:11:20.428Z,99.90
2023-01-07T00:13:49.369Z,99.90
2023-01-07T00:16:18.738Z,99.90
2023-01-07T00:18:46.381Z,99.90
2023-01-07T00:21:15.438Z,99.90
2023-01-07T00:23:43.423Z,99.90
2023-01-07T00:26:16.030Z,99.90
2023-01-07T00:28:44.381Z,99.90
2023-01-07T00:31:17.259Z,99.90
2023-01-07T00:34:07.088Z,99.90
2023-01-07T00:36:45.105Z,99.90
2023-01-07T00:39:20.504Z,99.90
2023-01-07T00:42:06.727Z,99.90
2023-01-07T00:44:34.229Z,99.90
2023-01-07T00:47:01.318Z,99.90
2023-01-07T00:49:28.265Z,99.90
2023-01-07T00:51:55.030Z,99.90
2023-01-07T00:54:21.818Z,99.90
2023-01-07T00:56:48.629Z,99.90
2023-01-07T00:59:15.313Z,99.90
2023-01-07T01:01:42.180Z,99.90
2023-01-07T01:04:08.997Z,99.90
2023-01-07T01:06:35.835Z,99.90
2023-01-07T01:09:02.698Z,99.90
2023-01-07T01:11:29.444Z,99.90
2023-01-07T01:13:56.141Z,99.90
2023-01-07T01:16:23.954Z,99.90
2023-01-07T01:18:50.752Z,99.90
2023-01-07T01:21:18.839Z,99.90
2023-01-07T01:23:45.992Z,99.90
2023-01-07T01:26:16.089Z,99.90
2023-01-07T01:28:43.629Z,99.90
2023-01-07T01:31:11.355Z,99.90
2023-01-07T01:33:38.213Z,99.90
2023-01-07T01:36:07.924Z,99.90
2023-01-07T01:38:34.702Z,99.90
2023-01-07T01:41:01.760Z,99.90
2023-01-07T01:43:40.464Z,99.90
2023-01-07T01:46:15.361Z,99.90
2023-01-07T01:48:56.818Z,99.90
2023-01-07T01:51:27.664Z,99.90
2023-01-07T01:53:56.178Z,99.90
2023-01-07T01:56:29.156Z,99.90
2023-01-07T01:59:01.307Z,99.90
2023-01-07T02:01:28.390Z,99.90
2023-01-07T02:03:57.658Z,99.90
2023-01-07T02:06:29.037Z,99.90
2023-01-07T02:08:55.840Z,99.90
2023-01-07T02:11:29.034Z,99.90
2023-01-07T02:14:01.701Z,99.90
2023-01-07T02:16:33.932Z,99.90
2023-01-07T02:19:28.387Z,99.90
2023-01-07T02:21:58.139Z,99.90
2023-01-07T02:25:03.135Z,99.90
2023-01-07T02:28:05.169Z,99.90
2023-01-07T02:30:54.969Z,99.90
2023-01-07T02:33:57.054Z,99.90
2023-01-07T02:36:35.110Z,99.90
2023-01-07T02:39:35.920Z,99.90
2023-01-07T02:42:35.033Z,99.90
2023-01-07T02:45:17.897Z,99.90
2023-01-07T02:48:01.422Z,99.90
2023-01-07T02:50:28.217Z,99.90
2023-01-07T02:52:54.977Z,99.90
2023-01-07T02:55:32.082Z,99.90
2023-01-07T02:58:27.761Z,99.90
2023-01-07T03:01:15.797Z,99.90
2023-01-07T03:04:34.046Z,99.90
2023-01-07T03:07:28.876Z,99.90
2023-01-07T03:10:11.779Z,99.90
2023-01-07T03:12:45.589Z,99.90
2023-01-07T03:15:20.251Z,99.90
2023-01-07T03:18:22.198Z,99.90
2023-01-07T03:20:53.311Z,99.90
2023-01-07T03:23:23.324Z,99.90
2023-01-07T03:25:54.053Z,99.90
2023-01-07T03:28:25.773Z,99.90
2023-01-07T03:30:56.012Z,99.90
2023-01-07T03:33:26.856Z,99.90
2023-01-07T03:35:56.819Z,99.90
2023-01-07T03:38:24.904Z,99.90
2023-01-07T03:40:52.739Z,99.90
2023-01-07T03:43:21.940Z,99.90
2023-01-07T03:45:50.333Z,99.90
2023-01-07T03:48:17.093Z,99.90
2023-01-07T03:50:43.841Z,99.90
2023-01-07T03:53:10.637Z,99.90
2023-01-07T03:55:37.384Z,99.90
2023-01-07T03:58:04.124Z,99.90
2023-01-07T04:00:30.794Z,99.90
2023-01-07T04:02:57.521Z,99.90
2023-01-07T04:05:24.284Z,99.90
2023-01-07T04:07:51.050Z,99.90
2023-01-07T04:10:17.913Z,99.90
2023-01-07T04:12:44.650Z,99.90
2023-01-07T04:15:11.623Z,99.90
2023-01-07T04:17:38.325Z,99.90
2023-01-07T04:20:07.775Z,99.90
2023-01-07T04:22:34.652Z,99.90
2023-01-07T04:25:01.352Z,99.90
2023-01-07T04:27:29.726Z,99.90
2023-01-07T04:29:56.473Z,99.90
2023-01-07T04:32:23.297Z,99.90
2023-01-07T04:34:49.971Z,99.90
2023-01-07T04:37:16.667Z,99.90
2023-01-07T04:39:43.401Z,99.90
2023-01-07T04:42:10.110Z,99.90
2023-01-07T04:44:36.985Z,99.90
2023-01-07T04:47:03.700Z,99.90
2023-01-07T04:49:30.444Z,99.90
2023-01-07T04:51:57.159Z,99.90
2023-01-07T04:54:23.895Z,99.90
2023-01-07T04:56:50.674Z,99.90
2023-01-07T04:59:17.403Z,99.90
2023-01-07T05:01:44.417Z,99.90
2023-01-07T05:04:11.303Z,99.90
2023-01-07T05:06:38.191Z,99.90
2023-01-07T05:09:04.935Z,99.90
2023-01-07T05:11:31.656Z,99.90
2023-01-07T05:14:00.767Z,99.90
2023-01-07T05:16:27.650Z,99.90
2023-01-07T05:18:54.509Z,99.90
2023-01-07T05:21:21.236Z,99.90
2023-01-07T05:23:48.136Z,99.90
2023-01-07T05:26:14.904Z,99.90
2023-01-07T05:28:41.660Z,99.90
2023-01-07T05:31:08.648Z,99.90
2023-01-07T05:33:35.503Z,99.90
2023-01-07T05:36:02.225Z,99.90
2023-01-07T05:38:28.950Z,99.90
2023-01-07T05:40:57.404Z,99.90
2023-01-07T05:43:24.142Z,99.90
2023-01-07T05:45:50.929Z,99.90
2023-01-07T05:48:17.656Z,99.90
2023-01-07T05:50:44.389Z,99.90
2023-01-07T05:53:11.216Z,99.90
2023-01-07T05:55:38.795Z,99.90
2023-01-07T05:58:06.517Z,99.90
2023-01-07T06:00:33.777Z,99.90
2023-01-07T06:03:00.593Z,99.90
2023-01-07T06:05:27.305Z,99.90
2023-01-07T06:07:54.183Z,99.90
2023-01-07T06:10:21.051Z,99.90
2023-01-07T06:12:47.787Z,99.90
2023-01-07T06:15:14.598Z,99.90
2023-01-07T06:17:41.304Z,99.90
2023-01-07T06:20:09.273Z,99.90
2023-01-07T06:22:36.466Z,99.90
2023-01-07T06:25:04.336Z,99.90
2023-01-07T06:27:31.215Z,99.90
2023-01-07T06:29:57.915Z,99.90
2023-01-07T06:32:24.710Z,99.90
2023-01-07T06:34:51.537Z,99.90
2023-01-07T06:37:18.261Z,99.90
2023-01-07T06:39:44.961Z,99.90
2023-01-07T06:42:11.717Z,99.90
2023-01-07T06:44:38.712Z,99.90
2023-01-07T06:47:05.453Z,99.90
2023-01-07T06:49:32.165Z,99.90
2023-01-07T06:51:58.895Z,99.90
2023-01-07T06:54:25.599Z,99.90
2023-01-07T06:56:52.345Z,99.90
2023-01-07T06:59:19.065Z,99.90
2023-01-07T07:01:46.782Z,99.90
2023-01-07T07:04:13.637Z,99.90
2023-01-07T07:06:40.366Z,99.90
2023-01-07T07:09:07.177Z,99.90
2023-01-07T07:11:34.187Z,99.90
2023-01-07T07:14:01.237Z,99.90
2023-01-07T07:16:27.953Z,99.90
2023-01-07T07:18:54.653Z,99.90
2023-01-07T07:21:21.693Z,99.90
2023-01-07T07:23:48.374Z,99.90
2023-01-07T07:26:15.154Z,99.90
2023-01-07T07:28:42.876Z,99.90
2023-01-07T07:31:10.228Z,99.90
2023-01-07T07:33:37.359Z,99.90
2023-01-07T07:36:05.072Z,99.90
2023-01-07T07:38:31.814Z,99.90
2023-01-07T07:40:58.690Z,99.90
2023-01-07T07:43:25.413Z,99.90
2023-01-07T07:45:52.114Z,99.90
2023-01-07T07:48:18.807Z,99.90
2023-01-07T07:50:49.865Z,99.90
2023-01-07T07:53:16.653Z,99.90
2023-01-07T07:55:43.387Z,99.90
2023-01-07T07:58:10.365Z,99.90
2023-01-07T08:00:37.064Z,99.90
2023-01-07T08:03:04.667Z,99.90
2023-01-07T08:05:32.007Z,99.90
2023-01-07T08:07:58.789Z,99.90
2023-01-07T08:10:27.939Z,99.90
2023-01-07T08:12:54.665Z,99.90
2023-01-07T08:15:21.385Z,99.90
2023-01-07T08:17:48.109Z,99.90
2023-01-07T08:20:14.839Z,99.90
2023-01-07T08:22:41.599Z,99.90
2023-01-07T08:25:08.756Z,99.90
2023-01-07T08:27:35.458Z,99.90
2023-01-07T08:30:02.178Z,99.90
2023-01-07T08:32:29.193Z,99.90
2023-01-07T08:34:56.168Z,99.90
2023-01-07T08:37:22.847Z,99.90
2023-01-07T08:39:49.506Z,99.90
2023-01-07T08:42:16.205Z,99.90
2023-01-07T08:44:43.075Z,99.90
2023-01-07T08:47:09.793Z,99.90
2023-01-07T08:49:36.530Z,99.90
2023-01-07T08:52:03.290Z,99.90
2023-01-07T08:54:29.972Z,99.90
2023-01-07T08:56:56.729Z,99.90
2023-01-07T08:59:23.542Z,99.90
2023-01-07T09:01:50.286Z,99.90
2023-01-07T09:04:17.084Z,99.90
2023-01-07T09:06:43.872Z,99.90
2023-01-07T09:09:11.878Z,99.90
2023-01-07T09:11:38.757Z,96.60
2023-01-07T09:14:05.521Z,92.20
2023-01-07T09:16:32.299Z,86.20
2023-01-07T09:18:59.190Z,80.20
2023-01-07T09:21:25.924Z,76.50
2023-01-07T09:23:52.614Z,74.80
2023-01-07T09:26:19.345Z,75.40
2023-01-07T09:28:46.050Z,77.20
2023-01-07T09:31:12.818Z,79.00
2023-01-07T09:33:40.924Z,80.30
2023-01-07T09:36:07.941Z,80.60
2023-01-07T09:38:34.760Z,82.30
2023-01-07T09:41:01.525Z,84.60
2023-01-07T09:43:59.691Z,84.40
2023-01-07T09:46:28.383Z,83.80
2023-01-07T09:48:59.292Z,83.90
2023-01-07T09:51:34.505Z,84.00
2023-01-07T09:54:03.972Z,86.70
2023-01-07T09:56:33.061Z,89.00
2023-01-07T09:59:01.242Z,90.40
2023-01-07T10:02:01.929Z,90.50
2023-01-07T10:04:42.875Z,91.60
2023-01-07T10:07:21.648Z,91.40
2023-01-07T10:10:06.456Z,92.60
2023-01-07T10:12:58.821Z,93.80
2023-01-07T10:15:47.220Z,93.80
2023-01-07T10:18:31.455Z,92.90
2023-01-07T10:21:01.538Z,92.30
2023-01-07T10:23:32.138Z,92.00
2023-01-07T10:26:01.002Z,92.30
2023-01-07T10:28:43.190Z,92.10
2023-01-07T10:31:25.606Z,92.70
2023-01-07T10:33:53.243Z,93.00
2023-01-07T10:36:28.098Z,93.00
2023-01-07T10:39:28.586Z,92.70
2023-01-07T10:41:55.163Z,92.60
2023-01-07T10:44:49.074Z,91.50
2023-01-07T10:47:53.953Z,91.00
2023-01-07T10:50:44.804Z,90.50
2023-01-07T10:53:33.600Z,90.80
2023-01-07T10:56:09.853Z,89.70
2023-01-07T10:58:41.918Z,89.00
2023-01-07T11:01:12.854Z,90.20
2023-01-07T11:03:40.255Z,90.70
2023-01-07T11:06:13.329Z,90.00
2023-01-07T11:08:42.420Z,90.50
2023-01-07T11:11:18.262Z,90.70
2023-01-07T11:14:00.966Z,90.80
2023-01-07T11:16:46.406Z,91.70
2023-01-07T11:19:13.337Z,90.50
2023-01-07T11:21:42.488Z,90.10
2023-01-07T11:24:31.706Z,90.90
2023-01-07T11:27:16.560Z,90.80
2023-01-07T11:29:56.329Z,90.80
2023-01-07T11:32:29.839Z,91.00
2023-01-07T11:34:56.666Z,91.70
2023-01-07T11:37:34.137Z,91.60
2023-01-07T11:40:04.501Z,91.80
2023-01-07T11:42:40.394Z,92.10
2023-01-07T11:45:14.929Z,91.20
2023-01-07T11:47:53.401Z,91.50
2023-01-07T11:50:27.249Z,91.20
2023-01-07T11:53:20.672Z,91.50
2023-01-07T11:56:06.366Z,91.70
2023-01-07T11:58:43.565Z,91.80
2023-01-07T12:01:10.437Z,91.90
2023-01-07T12:03:43.804Z,92.00
2023-01-07T12:06:25.753Z,92.50
2023-01-07T12:09:07.699Z,92.50
2023-01-07T12:11:39.280Z,91.90
2023-01-07T12:14:16.710Z,92.40
2023-01-07T12:16:45.097Z,93.00
2023-01-07T12:19:31.591Z,93.30
2023-01-07T12:22:07.230Z,93.20
2023-01-07T12:25:01.878Z,93.30
2023-01-07T12:28:01.879Z,94.00
2023-01-07T12:31:03.844Z,94.40
2023-01-07T12:34:00.473Z,93.70
2023-01-07T12:36:52.368Z,93.90
2023-01-07T12:39:25.830Z,94.50
2023-01-07T12:42:02.076Z,94.50
2023-01-07T12:44:28.858Z,94.30
2023-01-07T12:47:31.025Z,94.50
2023-01-07T12:50:32.818Z,94.70
2023-01-07T12:53:03.409Z,94.80
2023-01-07T12:55:35.821Z,95.00
2023-01-07T12:58:31.150Z,95.60
2023-01-07T13:01:22.754Z,95.70
2023-01-07T13:04:28.369Z,95.80
2023-01-07T13:07:01.871Z,96.00
2023-01-07T13:09:45.094Z,96.30
2023-01-07T13:12:46.291Z,96.40
2023-01-07T13:15:22.989Z,96.50
2023-01-07T13:17:51.516Z,96.40
2023-01-07T13:20:32.865Z,96.50
2023-01-07T13:23:01.163Z,96.90
2023-01-07T13:25:45.923Z,96.80
2023-01-07T13:28:31.358Z,96.80
2023-01-07T13:31:21.695Z,96.80
2023-01-07T13:33:57.369Z,97.00
2023-01-07T13:36:54.853Z,97.00
2023-01-07T13:39:27.885Z,97.00
2023-01-07T13:42:32.336Z,97.00
2023-01-07T13:45:14.155Z,97.10
2023-01-07T13:47:58.339Z,97.10
2023-01-07T13:50:37.201Z,97.30
2023-01-07T13:53:17.009Z,97.30
2023-01-07T13:55:46.198Z,97.50
2023-01-07T13:58:31.117Z,98.00
2023-01-07T14:03:43.854Z,97.60
2023-01-07T14:06:19.918Z,97.60
2023-01-07T14:09:05.302Z,97.60
2023-01-07T14:11:42.195Z,97.80
2023-01-07T14:14:24.609Z,97.60
2023-01-07T14:16:57.352Z,97.20
2023-01-07T14:19:32.905Z,97.00
2023-01-07T14:22:11.508Z,97.00
2023-01-07T14:24:53.292Z,96.80
2023-01-07T14:27:32.331Z,96.60
2023-01-07T14:30:16.884Z,96.50
2023-01-07T14:32:44.629Z,96.60
2023-01-07T14:35:11.347Z,96.80
2023-01-07T14:37:40.354Z,96.80
2023-01-07T14:40:26.053Z,96.90
2023-01-07T14:43:00.438Z,97.20
2023-01-07T14:45:42.201Z,97.10
2023-01-07T14:48:08.859Z,97.30
2023-01-07T14:51:03.612Z,97.20
2023-01-07T14:54:24.343Z,97.20
2023-01-07T14:57:17.499Z,97.20
2023-01-07T15:00:06.556Z,97.30
2023-01-07T15:02:58.099Z,97.40
2023-01-07T15:05:43.134Z,97.50
2023-01-07T15:08:35.624Z,97.50
2023-01-07T15:11:23.123Z,97.80
2023-01-07T15:14:21.871Z,98.10
2023-01-07T15:16:51.935Z,98.80
2023-01-07T15:19:18.906Z,99.60
2023-01-07T15:22:00.683Z,99.90
2023-01-07T15:24:42.702Z,99.90
2023-01-07T15:27:23.442Z,99.90
2023-01-07T15:30:19.214Z,99.90
2023-01-07T15:33:00.932Z,99.90
2023-01-07T15:35:33.835Z,99.90
2023-01-07T15:38:04.910Z,99.90
2023-01-07T15:40:31.808Z,99.90
2023-01-07T15:42:59.344Z,99.90
2023-01-07T15:45:28.511Z,99.90
2023-01-07T15:48:07.785Z,99.90
2023-01-07T15:50:37.232Z,99.90
2023-01-07T15:53:19.444Z,99.90
2023-01-07T15:55:55.933Z,99.90
2023-01-07T15:58:33.126Z,99.90
2023-01-07T16:01:01.507Z,99.90
2023-01-07T16:03:30.050Z,99.90
2023-01-07T16:05:59.205Z,99.90
2023-01-07T16:08:33.438Z,99.90
2023-01-07T16:11:09.026Z,99.90
2023-01-07T16:13:36.940Z,99.90
2023-01-07T16:16:06.567Z,99.90
2023-01-07T16:18:33.625Z,99.90
2023-01-07T16:21:07.725Z,99.90
2023-01-07T16:23:36.676Z,99.90
2023-01-07T16:26:22.980Z,99.90
2023-01-07T16:29:05.864Z,99.90
2023-01-07T16:31:35.137Z,99.90
2023-01-07T16:34:16.284Z,99.90
2023-01-07T16:36:44.741Z,99.90
2023-01-07T16:39:21.228Z,99.90
2023-01-07T16:41:48.351Z,99.90
2023-01-07T16:44:49.417Z,99.90
2023-01-07T16:47:27.223Z,99.90
2023-01-07T16:50:18.604Z,99.90
2023-01-07T16:52:56.426Z,99.90
2023-01-07T16:55:51.164Z,99.90
2023-01-07T16:58:39.333Z,99.90
2023-01-07T17:01:07.294Z,99.90
2023-01-07T17:03:48.132Z,99.90
2023-01-07T17:06:16.136Z,99.90
2023-01-07T17:08:49.379Z,99.90
2023-01-07T17:11:37.893Z,99.90
2023-01-07T17:14:24.863Z,99.90
2023-01-07T17:17:19.490Z,99.90
2023-01-07T17:20:22.602Z,99.90
2023-01-07T17:22:50.195Z,99.90
2023-01-07T17:25:30.486Z,99.90
2023-01-07T17:27:59.224Z,99.90
2023-01-07T17:30:40.447Z,99.90
2023-01-07T17:33:07.256Z,99.90
2023-01-07T17:35:33.996Z,99.90
2023-01-07T17:38:00.670Z,99.90
2023-01-07T17:40:27.417Z,99.90
2023-01-07T17:43:14.286Z,99.90
2023-01-07T17:45:41.042Z,99.90
2023-01-07T17:48:14.569Z,99.90
2023-01-07T17:50:41.904Z,99.90
2023-01-07T17:53:22.980Z,99.90
2023-01-07T17:55:49.781Z,99.90
2023-01-07T17:58:28.872Z,99.90
2023-01-07T18:00:57.368Z,99.90
2023-01-07T18:03:24.910Z,99.90
2023-01-07T18:05:51.756Z,99.90
2023-01-07T18:08:18.583Z,99.90
2023-01-07T18:11:04.292Z,99.90
2023-01-07T18:13:31.054Z,99.90
2023-01-07T18:15:58.203Z,99.90
2023-01-07T18:18:25.812Z,99.90
2023-01-07T18:20:54.111Z,99.90
2023-01-07T18:23:21.985Z,99.90
2023-01-07T18:25:48.948Z,99.90
2023-01-07T18:28:15.686Z,99.90
2023-01-07T18:30:42.538Z,99.90
2023-01-07T18:33:11.130Z,99.90
2023-01-07T18:35:40.618Z,99.90
2023-01-07T18:38:13.059Z,99.90
2023-01-07T18:40:40.108Z,99.90
2023-01-07T18:43:07.135Z,99.90
2023-01-07T18:45:33.841Z,99.90
2023-01-07T18:48:00.582Z,99.90
2023-01-07T18:50:27.482Z,99.90
2023-01-07T18:52:54.232Z,99.90
2023-01-07T18:55:21.078Z,99.90
2023-01-07T18:57:47.793Z,99.90
2023-01-07T19:00:15.021Z,99.90
2023-01-07T19:02:41.707Z,99.90
2023-01-07T19:05:08.601Z,99.90
2023-01-07T19:07:36.088Z,99.90
2023-01-07T19:10:07.270Z,99.90
2023-01-07T19:12:34.218Z,99.90
2023-01-07T19:15:00.966Z,99.90
2023-01-07T19:17:27.762Z,99.90
2023-01-07T19:19:54.475Z,99.90
2023-01-07T19:22:21.224Z,99.90
2023-01-07T19:24:47.921Z,99.90
2023-01-07T19:27:14.640Z,99.90
2023-01-07T19:29:41.330Z,99.90
2023-01-07T19:32:08.124Z,99.90
2023-01-07T19:34:34.970Z,99.90
2023-01-07T19:37:01.656Z,99.90
2023-01-07T19:39:28.388Z,99.90
2023-01-07T19:41:56.332Z,99.90
2023-01-07T19:44:23.093Z,99.90
2023-01-07T19:46:49.891Z,99.90
2023-01-07T19:49:16.796Z,99.90
2023-01-07T19:51:43.907Z,99.90
2023-01-07T19:54:15.220Z,99.90
2023-01-07T19:56:43.601Z,99.90
2023-01-07T19:59:11.116Z,99.90
2023-01-07T20:01:39.009Z,99.90
2023-01-07T20:04:07.999Z,99.90
2023-01-07T20:06:38.842Z,99.90
2023-01-07T20:09:10.584Z,99.90
2023-01-07T20:11:42.941Z,99.90
2023-01-07T20:14:11.948Z,99.90
2023-01-07T20:16:41.429Z,99.90
2023-01-07T20:19:11.480Z,99.90
2023-01-07T20:21:39.186Z,99.90
2023-01-07T20:24:06.397Z,99.90
2023-01-07T20:26:34.208Z,99.90
2023-01-07T20:29:01.479Z,99.90
2023-01-07T20:31:30.114Z,99.90
2023-01-07T20:33:57.594Z,99.90
2023-01-07T20:36:29.911Z,99.90
2023-01-07T20:38:57.266Z,99.90
2023-01-07T20:41:26.685Z,99.90
2023-01-07T20:43:56.207Z,99.90
2023-01-07T20:46:23.699Z,99.90
2023-01-07T20:48:50.516Z,99.90
2023-01-07T20:51:17.917Z,99.90
2023-01-07T20:53:46.836Z,99.90
2023-01-07T20:56:16.320Z,99.90
2023-01-07T20:58:43.036Z,99.90
2023-01-07T21:01:12.845Z,99.90
2023-01-07T21:03:40.407Z,99.90
2023-01-07T21:06:10.063Z,99.90
2023-01-07T21:08:37.462Z,99.90
2023-01-07T21:11:07.366Z,99.90
2023-01-07T21:13:34.049Z,99.90
2023-01-07T21:16:04.517Z,99.90
2023-01-07T21:18:32.125Z,99.90
2023-01-07T21:20:59.352Z,99.90
2023-01-07T21:23:26.539Z,99.90
2023-01-07T21:25:54.002Z,99.90
2023-01-07T21:28:20.943Z,99.90
2023-01-07T21:30:47.714Z,99.90
2023-01-07T21:33:15.677Z,99.90
2023-01-07T21:35:42.452Z,99.90
2023-01-07T21:38:09.248Z,99.90
2023-01-07T21:40:38.238Z,99.90
2023-01-07T21:43:04.994Z,99.90
2023-01-07T21:45:31.752Z,99.90
2023-01-07T21:47:58.526Z,99.90
2023-01-07T21:50:25.260Z,99.90
2023-01-07T21:52:52.005Z,99.90
2023-01-07T21:55:18.799Z,99.90
2023-01-07T21:57:45.608Z,99.90
2023-01-07T22:00:13.070Z,99.90
2023-01-07T22:02:39.959Z,99.90
2023-01-07T22:05:07.311Z,99.90
2023-01-07T22:07:34.045Z,99.90
2023-01-07T22:10:00.856Z,99.90
2023-01-07T22:12:27.754Z,99.90
2023-01-07T22:14:54.482Z,99.90
2023-01-07T22:17:21.312Z,99.90
2023-01-07T22:19:48.037Z,99.90
2023-01-07T22:22:16.671Z,99.90
2023-01-07T22:24:43.374Z,99.90
2023-01-07T22:27:10.103Z,99.90
2023-01-07T22:29:37.315Z,99.90
2023-01-07T22:32:04.206Z,99.90
2023-01-07T22:34:32.171Z,99.90
2023-01-07T22:37:11.439Z,99.90
2023-01-07T22:39:42.553Z,99.90
2023-01-07T22:42:14.708Z,99.90
2023-01-07T22:44:50.590Z,99.90
2023-01-07T22:47:26.656Z,99.90
2023-01-07T22:49:53.863Z,99.90
2023-01-07T22:52:20.890Z,99.90
2023-01-07T22:54:47.779Z,99.90
2023-01-07T22:57:15.187Z,99.90
2023-01-07T22:59:41.890Z,99.90
2023-01-07T23:02:08.656Z,99.90
2023-01-07T23:04:35.443Z,99.90
2023-01-07T23:07:02.205Z,99.90
2023-01-07T23:09:29.137Z,99.90
2023-01-07T23:11:59.501Z,99.90
2023-01-07T23:14:27.283Z,99.90
2023-01-07T23:16:54.569Z,99.90
2023-01-07T23:19:22.568Z,99.90
2023-01-07T23:21:51.804Z,99.90
2023-01-07T23:24:19.066Z,99.90
2023-01-07T23:26:48.433Z,99.90
2023-01-07T23:29:15.149Z,99.90
2023-01-07T23:31:41.993Z,99.90
2023-01-07T23:34:08.892Z,99.90
2023-01-07T23:36:39.263Z,99.90
2023-01-07T23:39:06.502Z,99.90
2023-01-07T23:41:34.318Z,99.90
2023-01-07T23:44:01.050Z,99.90
2023-01-07T23:46:27.898Z,99.90
2023-01-07T23:48:54.674Z,99.90
2023-01-07T23:51:21.551Z,99.90
2023-01-07T23:53:49.026Z,99.90
2023-01-07T23:56:19.139Z,99.90
2023-01-07T23:58:45.791Z,99.90
